Hlavní strana
METAR-TAF:

METAR-TAF

Letiště :

Ammán, Jordánsko

zeměpisná šířka: 31-59N, zeměpisná délka: 035-59E, výška: 767 m

Aktuální stav počasí

Zpráva byla vytvořena před 32 minutami, v 11:00 UTC
Severoseverozápadní vítr 11 kt
Teplota 30°C
Vlhkost vzduchu 43%
Tlak 1012 hPa
Viditelnost: 6000 m

METAR: OJAM 211100Z 34011KT 6000 NSC 30/16 Q1012 NOSIG

Čas: 14:32 (11:32 UTC)

Předpověď počasí

Zpráva byla vytvořena před 6 hodinami a 37 minutami, v 04:55 UTC
Předpověď platná od 21 v 06 UTC do 22 v 12 UTC
Severozápadní vítr 3 kt
Viditelnost: 4000 m
Skoro jasno ve výšce 3000 ft
zákal
Změna
od 21 v 07 UTC do 21 v 08 UTC
Západoseverozápadní vítr 12 kt
Viditelnost: 5000 m

TAF: OJAM 210455Z 2106/2212 32003KT 4000 HZ FEW030 BECMG 2107/2108 29012KT 5000

Stav a předpovědi počasí z více než 4 000 letišť (zprávy METAR a TAF).

Červené a žluté tečky na mapě představují dostupné meteorologické stanice.

Když kurzor umístíte na tečku, zobrazí se název stanice.

Pak kliknutím zobrazíte stav a předpověď počasí.

Chcete-li změnit mapu, kliknutím na zelené tlačítko se znaménkem +mapu přiblížíte, kliknutím na zelené tlačítko se znaménkem – mapu oddálíte a kliknutím na zelené šipky přejdete na sousední mapy.


METAR-TAF: